createdAt,value
2018-03-11T00:00:36.667Z,70.43
2018-03-11T00:01:11.379Z,69.82
2018-03-11T00:01:45.842Z,66.50
2018-03-11T00:02:19.609Z,72.15
2018-03-11T00:02:53.423Z,70.50
2018-03-11T00:03:27.099Z,77.78
2018-03-11T00:04:00.788Z,81.65
2018-03-11T00:04:34.505Z,74.20
2018-03-11T00:05:08.192Z,72.93
2018-03-11T00:05:41.874Z,72.97
2018-03-11T00:06:15.221Z,81.32
2018-03-11T00:06:48.907Z,71.32
2018-03-11T00:07:22.600Z,68.03
2018-03-11T00:07:56.300Z,79.00
2018-03-11T00:08:29.974Z,73.07
2018-03-11T00:09:03.560Z,74.20
2018-03-11T00:09:38.010Z,78.80
2018-03-11T00:10:11.366Z,74.55
2018-03-11T00:10:45.056Z,70.28
2018-03-11T00:11:18.747Z,72.10
2018-03-11T00:11:52.436Z,72.18
2018-03-11T00:12:26.336Z,74.10
2018-03-11T00:13:00.021Z,74.68
2018-03-11T00:13:33.691Z,79.55
2018-03-11T00:14:08.156Z,70.37
2018-03-11T00:14:41.895Z,75.93
2018-03-11T00:15:15.715Z,75.30
2018-03-11T00:15:49.661Z,78.53
2018-03-11T00:16:23.358Z,74.70
2018-03-11T00:16:58.049Z,77.60
2018-03-11T00:17:31.736Z,70.20
2018-03-11T00:18:05.433Z,79.28
2018-03-11T00:18:39.131Z,73.10
2018-03-11T00:19:12.798Z,79.22
2018-03-11T00:19:46.489Z,69.93
2018-03-11T00:20:20.166Z,70.62
2018-03-11T00:20:53.874Z,69.55
2018-03-11T00:21:27.565Z,77.78
2018-03-11T00:22:01.277Z,71.43
2018-03-11T00:22:35.008Z,82.45
2018-03-11T00:23:08.689Z,73.50
2018-03-11T00:23:42.379Z,77.05
2018-03-11T00:24:16.063Z,74.70
2018-03-11T00:24:49.759Z,81.87
2018-03-11T00:25:23.451Z,74.53
2018-03-11T00:25:57.134Z,71.60
2018-03-11T00:26:31.597Z,78.53
2018-03-11T00:27:05.008Z,81.68
2018-03-11T00:27:39.465Z,77.40
2018-03-11T00:28:12.825Z,72.37
2018-03-11T00:28:46.500Z,71.60
2018-03-11T00:29:20.959Z,77.43
2018-03-11T00:29:56.721Z,79.43
2018-03-11T00:30:30.403Z,78.57
2018-03-11T00:31:04.081Z,78.57
2018-03-11T00:31:37.770Z,77.03
2018-03-11T00:32:11.159Z,78.07
2018-03-11T00:32:44.843Z,75.47
2018-03-11T00:33:18.536Z,72.53
2018-03-11T00:33:52.226Z,76.87
2018-03-11T00:34:25.905Z,77.07
2018-03-11T00:34:59.579Z,83.90
2018-03-11T00:35:33.293Z,74.90
2018-03-11T00:36:06.983Z,78.37
2018-03-11T00:36:40.665Z,78.53
2018-03-11T00:37:14.359Z,74.32
2018-03-11T00:37:48.045Z,82.07
2018-03-11T00:38:21.738Z,72.75
2018-03-11T00:38:55.427Z,73.00
2018-03-11T00:39:29.117Z,83.62
2018-03-11T00:40:02.821Z,78.70
2018-03-11T00:40:36.525Z,85.62
2018-03-11T00:41:10.199Z,77.12
2018-03-11T00:41:43.888Z,83.25
2018-03-11T00:42:17.595Z,82.45
2018-03-11T00:42:52.053Z,83.32
2018-03-11T00:43:25.715Z,79.03
2018-03-11T00:43:59.408Z,81.70
2018-03-11T00:44:33.096Z,80.53
2018-03-11T00:45:07.204Z,76.82
2018-03-11T00:45:40.879Z,81.28
2018-03-11T00:46:15.324Z,91.18
2018-03-11T00:46:49.004Z,84.50
2018-03-11T00:47:22.716Z,85.07
2018-03-11T00:47:56.400Z,85.60
2018-03-11T00:48:30.061Z,88.80
2018-03-11T00:49:03.749Z,94.80
2018-03-11T00:49:37.436Z,92.40
2018-03-11T00:50:11.877Z,93.22
2018-03-11T00:50:45.565Z,97.37
2018-03-11T00:51:19.237Z,98.22
2018-03-11T00:51:52.923Z,98.45
2018-03-11T00:52:26.623Z,97.65
2018-03-11T00:53:00.315Z,103.38
2018-03-11T00:53:34.022Z,104.50
2018-03-11T00:54:07.713Z,99.47
2018-03-11T00:54:41.414Z,106.80
2018-03-11T00:55:15.099Z,106.90
2018-03-11T00:55:48.800Z,100.25
2018-03-11T00:56:22.483Z,107.78
2018-03-11T00:56:56.176Z,111.37
2018-03-11T00:57:29.873Z,114.78
2018-03-11T00:58:03.557Z,105.28
2018-03-11T00:58:37.275Z,110.93
2018-03-11T00:59:11.751Z,115.62
2018-03-11T00:59:45.445Z,116.40
2018-03-11T01:00:19.130Z,115.00
2018-03-11T01:00:52.819Z,115.88
2018-03-11T01:01:26.500Z,114.45
2018-03-11T01:02:00.190Z,117.82
2018-03-11T01:02:33.904Z,112.20
2018-03-11T01:03:07.597Z,115.68
2018-03-11T01:03:41.286Z,116.10
2018-03-11T01:04:14.974Z,119.35
2018-03-11T01:04:48.688Z,116.03
2018-03-11T01:05:23.149Z,116.82
2018-03-11T01:05:56.519Z,113.97
2018-03-11T01:06:30.208Z,120.87
2018-03-11T01:07:03.044Z,116.30
2018-03-11T01:07:37.613Z,114.07
2018-03-11T01:08:10.976Z,116.22
2018-03-11T01:08:44.658Z,122.22
2018-03-11T01:09:18.337Z,118.53
2018-03-11T01:09:52.020Z,114.93
2018-03-11T01:10:25.716Z,121.20
2018-03-11T01:10:59.415Z,114.25
2018-03-11T01:11:33.390Z,123.03
2018-03-11T01:12:07.076Z,123.78
2018-03-11T01:12:40.813Z,120.50
2018-03-11T01:13:14.505Z,113.62
2018-03-11T01:13:48.191Z,115.88
2018-03-11T01:14:21.872Z,114.80
2018-03-11T01:14:55.551Z,114.65
2018-03-11T01:15:28.926Z,112.75
2018-03-11T01:16:02.761Z,117.03
2018-03-11T01:16:36.442Z,113.53
2018-03-11T01:17:09.783Z,113.35
2018-03-11T01:17:43.486Z,110.35
2018-03-11T01:18:17.164Z,111.00
2018-03-11T01:18:50.858Z,114.60
2018-03-11T01:19:24.543Z,110.03
2018-03-11T01:19:58.229Z,115.50
2018-03-11T01:20:31.909Z,118.43
2018-03-11T01:21:05.269Z,116.72
2018-03-11T01:21:39.728Z,119.57
2018-03-11T01:22:13.749Z,102.10
2018-03-11T01:22:47.451Z,120.53
2018-03-11T01:23:21.190Z,114.20
2018-03-11T01:23:54.881Z,103.05
2018-03-11T01:24:28.582Z,113.40
2018-03-11T01:25:02.255Z,107.95
2018-03-11T01:25:36.694Z,107.63
2018-03-11T01:26:10.388Z,114.37
2018-03-11T01:26:44.060Z,110.22
2018-03-11T01:27:17.758Z,119.13
2018-03-11T01:27:51.456Z,107.45
2018-03-11T01:28:25.144Z,111.05
2018-03-11T01:28:58.837Z,105.32
2018-03-11T01:29:32.526Z,109.25
2018-03-11T01:30:05.880Z,116.15
2018-03-11T01:30:39.572Z,114.93
2018-03-11T01:31:13.258Z,111.62
2018-03-11T01:31:46.938Z,118.05
2018-03-11T01:32:20.636Z,113.60
2018-03-11T01:32:54.356Z,111.78
2018-03-11T01:33:28.043Z,111.18
2018-03-11T01:34:01.746Z,120.18
2018-03-11T01:34:35.426Z,111.22
2018-03-11T01:35:09.115Z,111.12
2018-03-11T01:35:42.805Z,119.47
2018-03-11T01:36:16.490Z,116.10
2018-03-11T01:36:50.160Z,109.30
2018-03-11T01:37:23.828Z,126.12
2018-03-11T01:37:58.300Z,113.85
2018-03-11T01:38:31.986Z,113.70
2018-03-11T01:39:05.327Z,117.25
2018-03-11T01:39:38.995Z,109.32
2018-03-11T01:40:13.435Z,113.18
2018-03-11T01:40:47.114Z,116.40
2018-03-11T01:41:20.807Z,113.55
2018-03-11T01:41:54.592Z,117.35
2018-03-11T01:42:28.284Z,105.65
2018-03-11T01:43:01.976Z,111.35
2018-03-11T01:43:35.666Z,112.12
2018-03-11T01:44:09.351Z,114.15
2018-03-11T01:44:43.026Z,112.22
2018-03-11T01:45:17.487Z,113.78
2018-03-11T01:45:51.158Z,108.45
2018-03-11T01:46:24.843Z,108.85
2018-03-11T01:46:58.521Z,109.85
2018-03-11T01:47:32.250Z,112.72
2018-03-11T01:48:05.956Z,110.97
2018-03-11T01:48:39.782Z,115.97
2018-03-11T01:49:13.464Z,110.68
2018-03-11T01:49:47.918Z,116.40
2018-03-11T01:50:21.594Z,112.00
2018-03-11T01:50:55.262Z,112.53
2018-03-11T01:51:28.940Z,112.00
2018-03-11T01:52:03.378Z,111.75
2018-03-11T01:52:48.406Z,107.93
2018-03-11T01:53:22.946Z,102.00
2018-03-11T01:53:57.808Z,112.05
2018-03-11T01:54:31.918Z,107.37
2018-03-11T01:55:06.375Z,114.43
2018-03-11T01:55:40.152Z,110.43
2018-03-11T01:56:14.332Z,109.20
2018-03-11T01:56:53.968Z,116.68
2018-03-11T01:57:28.975Z,112.20
2018-03-11T01:58:03.836Z,113.45
2018-03-11T01:58:38.308Z,119.90
2018-03-11T01:59:12.912Z,112.85
2018-03-11T01:59:48.282Z,105.75
2018-03-11T02:00:23.781Z,111.50
2018-03-11T02:00:58.222Z,114.40
2018-03-11T02:01:31.952Z,118.28
2018-03-11T02:02:05.635Z,116.70
2018-03-11T02:02:39.305Z,108.72
2018-03-11T02:03:13.051Z,109.68
2018-03-11T02:03:47.511Z,114.68
2018-03-11T02:04:21.248Z,111.80
2018-03-11T02:04:58.183Z,113.05
2018-03-11T02:05:31.851Z,110.25
2018-03-11T02:06:05.524Z,107.32
2018-03-11T02:06:39.205Z,111.78
2018-03-11T02:07:12.884Z,112.28
2018-03-11T02:07:47.321Z,108.55
2018-03-11T02:08:21.174Z,113.10
2018-03-11T02:08:55.646Z,112.15
2018-03-11T02:09:29.322Z,117.65
2018-03-11T02:10:03.002Z,109.90
2018-03-11T02:10:36.696Z,113.28
2018-03-11T02:11:10.378Z,104.50
2018-03-11T02:11:44.092Z,109.12
2018-03-11T02:12:17.772Z,109.03
2018-03-11T02:12:51.450Z,107.93
2018-03-11T02:13:25.154Z,102.70
2018-03-11T02:13:58.838Z,117.68
2018-03-11T02:14:32.518Z,111.15
2018-03-11T02:15:06.194Z,112.82
2018-03-11T02:15:40.472Z,107.12
2018-03-11T02:16:14.930Z,113.15
2018-03-11T02:16:48.618Z,102.60
2018-03-11T02:17:22.304Z,106.50
2018-03-11T02:17:56.000Z,101.90
2018-03-11T02:18:29.765Z,98.07
2018-03-11T02:19:03.442Z,100.28
2018-03-11T02:19:37.892Z,105.20
2018-03-11T02:20:11.567Z,107.75
2018-03-11T02:20:45.240Z,109.47
2018-03-11T02:21:18.946Z,103.53
2018-03-11T02:21:52.630Z,113.95
2018-03-11T02:22:26.312Z,103.68
2018-03-11T02:23:00.106Z,108.60
2018-03-11T02:23:33.824Z,110.25
2018-03-11T02:24:07.546Z,107.37
2018-03-11T02:24:41.277Z,106.05
2018-03-11T02:25:14.962Z,116.05
2018-03-11T02:25:48.650Z,110.85
2018-03-11T02:26:22.331Z,107.10
2018-03-11T02:26:56.042Z,118.35
2018-03-11T02:27:29.716Z,106.75
2018-03-11T02:28:04.164Z,110.22
2018-03-11T02:28:37.880Z,108.90
2018-03-11T02:29:11.564Z,97.15
2018-03-11T02:29:45.246Z,100.32
2018-03-11T02:30:18.932Z,99.32
2018-03-11T02:30:52.623Z,113.00
2018-03-11T02:31:26.308Z,107.50
2018-03-11T02:31:59.994Z,106.93
2018-03-11T02:32:33.688Z,105.68
2018-03-11T02:33:07.371Z,106.93
2018-03-11T02:33:41.565Z,99.80
2018-03-11T02:34:15.244Z,114.45
2018-03-11T02:34:48.902Z,106.57
2018-03-11T02:35:23.362Z,106.72
2018-03-11T02:35:56.716Z,103.50
2018-03-11T02:36:30.404Z,101.80
2018-03-11T02:37:04.082Z,103.53
2018-03-11T02:37:37.777Z,100.78
2018-03-11T02:38:11.450Z,97.18
2018-03-11T02:38:45.927Z,99.85
2018-03-11T02:39:19.671Z,99.50
2018-03-11T02:39:53.019Z,103.32
2018-03-11T02:40:27.475Z,99.55
2018-03-11T02:41:01.140Z,98.03
2018-03-11T02:41:34.815Z,99.37
2018-03-11T02:42:09.263Z,97.88
2018-03-11T02:42:42.941Z,99.70
2018-03-11T02:43:16.625Z,96.45
2018-03-11T02:43:50.373Z,100.45
2018-03-11T02:44:25.580Z,104.00
2018-03-11T02:44:59.416Z,95.53
2018-03-11T02:45:33.870Z,97.37
2018-03-11T02:46:07.578Z,96.05
2018-03-11T02:46:41.299Z,91.63
2018-03-11T02:47:15.739Z,97.50
2018-03-11T02:47:49.410Z,93.70
2018-03-11T02:48:23.855Z,92.22
2018-03-11T02:48:57.650Z,93.30
2018-03-11T02:49:31.325Z,91.15
2018-03-11T02:50:04.368Z,96.15
2018-03-11T02:50:38.832Z,89.40
2018-03-11T02:51:12.519Z,97.07
2018-03-11T02:51:45.880Z,94.55
2018-03-11T02:52:19.554Z,95.55
2018-03-11T02:52:53.997Z,94.30
2018-03-11T02:53:27.699Z,92.30
2018-03-11T02:54:01.387Z,86.40
2018-03-11T02:54:35.065Z,89.10
2018-03-11T02:55:08.741Z,89.62
2018-03-11T02:55:42.415Z,84.78
2018-03-11T02:56:16.095Z,90.95
2018-03-11T02:56:50.529Z,95.40
2018-03-11T02:57:24.218Z,84.50
2018-03-11T02:57:57.891Z,85.97
2018-03-11T02:58:31.571Z,83.57
2018-03-11T02:59:04.927Z,86.82
2018-03-11T02:59:38.615Z,82.25
2018-03-11T03:00:12.301Z,85.05
2018-03-11T03:00:46.004Z,90.43
2018-03-11T03:01:19.676Z,93.62
2018-03-11T03:01:53.359Z,84.82
2018-03-11T03:02:27.040Z,84.30
2018-03-11T03:03:00.584Z,87.68
2018-03-11T03:03:35.083Z,87.70
2018-03-11T03:04:09.211Z,84.82
2018-03-11T03:04:42.887Z,82.62
2018-03-11T03:05:16.574Z,84.80
2018-03-11T03:05:50.259Z,83.47
2018-03-11T03:06:23.936Z,88.05
2018-03-11T03:06:58.376Z,93.37
2018-03-11T03:07:32.053Z,89.95
2018-03-11T03:08:05.737Z,85.80
2018-03-11T03:08:39.419Z,78.87
2018-03-11T03:09:13.873Z,86.32
2018-03-11T03:09:47.763Z,85.68
2018-03-11T03:10:21.593Z,86.85
2018-03-11T03:10:56.045Z,83.85
2018-03-11T03:11:29.723Z,84.55
2018-03-11T03:12:03.467Z,90.53
2018-03-11T03:12:37.145Z,90.05
2018-03-11T03:13:10.485Z,88.87
2018-03-11T03:13:43.979Z,84.68
2018-03-11T03:14:17.727Z,89.50
2018-03-11T03:14:51.411Z,97.07
2018-03-11T03:15:25.093Z,88.35
2018-03-11T03:15:58.764Z,93.87
2018-03-11T03:16:32.653Z,93.55
2018-03-11T03:17:06.339Z,91.40
2018-03-11T03:17:40.002Z,96.35
2018-03-11T03:18:13.679Z,85.87
2018-03-11T03:18:48.136Z,96.25
2018-03-11T03:19:21.873Z,98.12
2018-03-11T03:19:56.331Z,83.70
2018-03-11T03:20:30.007Z,81.45
2018-03-11T03:21:03.685Z,86.55
2018-03-11T03:21:37.367Z,87.28
2018-03-11T03:22:11.349Z,81.82
2018-03-11T03:22:45.815Z,83.20
2018-03-11T03:23:19.509Z,83.37
2018-03-11T03:23:53.231Z,86.03
2018-03-11T03:24:27.675Z,88.45
2018-03-11T03:25:01.375Z,80.87
2018-03-11T03:25:35.493Z,87.82
2018-03-11T03:26:09.173Z,88.72
2018-03-11T03:26:42.520Z,81.68
2018-03-11T03:27:16.209Z,83.57
2018-03-11T03:27:49.887Z,83.75
2018-03-11T03:28:24.325Z,93.93
2018-03-11T03:28:58.298Z,84.30
2018-03-11T03:29:32.089Z,88.50
2018-03-11T03:30:05.475Z,92.20
2018-03-11T03:30:39.176Z,87.30
2018-03-11T03:31:12.868Z,86.10
2018-03-11T03:31:46.565Z,90.45
2018-03-11T03:32:20.243Z,87.47
2018-03-11T03:32:54.603Z,87.18
2018-03-11T03:33:28.289Z,85.75
2018-03-11T03:34:02.233Z,83.70
2018-03-11T03:34:35.900Z,92.55
2018-03-11T03:35:09.582Z,89.65
2018-03-11T03:35:43.259Z,94.87
2018-03-11T03:36:16.935Z,93.32
2018-03-11T03:36:50.616Z,90.87
2018-03-11T03:37:24.291Z,89.18
2018-03-11T03:37:57.978Z,81.12
2018-03-11T03:38:31.646Z,86.45
2018-03-11T03:39:05.441Z,88.47
2018-03-11T03:39:39.129Z,83.72
2018-03-11T03:40:12.804Z,84.90
2018-03-11T03:40:47.247Z,80.72
2018-03-11T03:41:20.932Z,83.93
2018-03-11T03:41:54.610Z,86.07
2018-03-11T03:42:28.283Z,79.75
2018-03-11T03:43:02.747Z,83.25
2018-03-11T03:43:36.438Z,80.03
2018-03-11T03:44:10.139Z,79.72
2018-03-11T03:44:44.578Z,84.28
2018-03-11T03:45:19.017Z,83.32
2018-03-11T03:45:52.713Z,82.55
2018-03-11T03:46:26.399Z,77.75
2018-03-11T03:47:00.079Z,85.38
2018-03-11T03:47:33.753Z,76.62
2018-03-11T03:48:08.205Z,80.85
2018-03-11T03:48:41.892Z,87.30
2018-03-11T03:49:15.611Z,82.10
2018-03-11T03:49:49.478Z,78.40
2018-03-11T03:50:23.155Z,74.62
2018-03-11T03:50:56.833Z,81.50
2018-03-11T03:51:30.519Z,87.30
2018-03-11T03:52:04.200Z,77.20
2018-03-11T03:52:37.884Z,79.97
2018-03-11T03:53:11.559Z,86.20
2018-03-11T03:53:45.996Z,82.47
2018-03-11T03:54:19.689Z,85.57
2018-03-11T03:54:53.376Z,84.10
2018-03-11T03:55:27.057Z,84.93
2018-03-11T03:56:00.739Z,86.53
2018-03-11T03:56:35.179Z,93.65
2018-03-11T03:57:08.855Z,83.32
2018-03-11T03:57:42.528Z,89.60
2018-03-11T03:58:16.195Z,85.10
2018-03-11T03:58:49.868Z,91.90
2018-03-11T03:59:24.329Z,86.53
2018-03-11T03:59:58.021Z,85.82
2018-03-11T04:00:31.683Z,89.72
2018-03-11T04:01:06.113Z,90.35
2018-03-11T04:01:39.805Z,86.40
2018-03-11T04:02:13.156Z,88.72
2018-03-11T04:02:47.604Z,86.45
2018-03-11T04:03:21.424Z,92.47
2018-03-11T04:03:55.111Z,92.07
2018-03-11T04:04:28.812Z,88.68
2018-03-11T04:05:02.487Z,90.35
2018-03-11T04:05:36.155Z,88.12
2018-03-11T04:06:09.827Z,89.50
2018-03-11T04:06:44.272Z,87.82
2018-03-11T04:07:17.957Z,82.50
2018-03-11T04:07:51.643Z,84.93
2018-03-11T04:08:25.321Z,87.15
2018-03-11T04:08:59.013Z,90.10
2018-03-11T04:09:32.711Z,80.68
2018-03-11T04:10:06.381Z,88.82
2018-03-11T04:10:39.724Z,87.25
2018-03-11T04:11:13.428Z,88.37
2018-03-11T04:11:48.119Z,88.93
2018-03-11T04:12:21.784Z,89.35
2018-03-11T04:12:55.462Z,89.00
2018-03-11T04:13:29.192Z,83.47
2018-03-11T04:14:03.019Z,93.65
2018-03-11T04:14:36.713Z,84.93
2018-03-11T04:15:10.203Z,81.57
2018-03-11T04:15:43.883Z,89.95
2018-03-11T04:16:17.571Z,89.20
2018-03-11T04:16:52.033Z,85.15
2018-03-11T04:17:25.722Z,87.22
2018-03-11T04:17:59.409Z,85.90
2018-03-11T04:18:33.087Z,88.50
2018-03-11T04:19:06.768Z,87.78
2018-03-11T04:19:40.475Z,84.97
2018-03-11T04:20:14.165Z,85.05
2018-03-11T04:20:47.839Z,83.28
2018-03-11T04:21:21.513Z,78.87
2018-03-11T04:21:55.197Z,82.90
2018-03-11T04:22:29.631Z,89.18
2018-03-11T04:23:03.307Z,80.18
2018-03-11T04:23:36.989Z,84.45
2018-03-11T04:24:10.791Z,87.45
2018-03-11T04:24:44.465Z,88.97
2018-03-11T04:25:18.159Z,80.55
2018-03-11T04:25:51.839Z,88.05
2018-03-11T04:26:26.972Z,94.00
2018-03-11T04:27:00.644Z,87.57
2018-03-11T04:27:35.151Z,85.20
2018-03-11T04:28:09.621Z,88.47
2018-03-11T04:28:43.306Z,87.07
2018-03-11T04:29:16.979Z,82.78
2018-03-11T04:29:50.695Z,86.00
2018-03-11T04:30:24.384Z,80.15
2018-03-11T04:30:58.056Z,84.37
2018-03-11T04:31:31.738Z,86.40
2018-03-11T04:32:05.430Z,82.37
2018-03-11T04:32:39.119Z,84.40
2018-03-11T04:33:12.813Z,83.00
2018-03-11T04:33:46.491Z,83.55
2018-03-11T04:34:20.162Z,90.70
2018-03-11T04:34:53.846Z,86.93
2018-03-11T04:35:28.297Z,93.80
2018-03-11T04:36:01.971Z,91.18
2018-03-11T04:36:35.662Z,85.25
2018-03-11T04:37:09.339Z,91.12
2018-03-11T04:37:43.023Z,88.75
2018-03-11T04:38:16.693Z,87.97
2018-03-11T04:38:51.138Z,95.30
2018-03-11T04:39:24.810Z,93.28
2018-03-11T04:39:58.523Z,89.07
2018-03-11T04:40:32.214Z,93.25
2018-03-11T04:41:05.896Z,97.40
2018-03-11T04:41:39.559Z,87.50
2018-03-11T04:42:13.239Z,97.18
2018-03-11T04:42:47.678Z,91.12
2018-03-11T04:43:21.374Z,85.20
2018-03-11T04:43:55.055Z,88.45
2018-03-11T04:44:28.733Z,80.97
2018-03-11T04:45:02.428Z,89.57
2018-03-11T04:45:36.104Z,85.47
2018-03-11T04:46:09.781Z,83.85
2018-03-11T04:46:44.216Z,95.20
2018-03-11T04:47:17.905Z,84.45
2018-03-11T04:47:51.583Z,91.70
2018-03-11T04:48:25.257Z,91.12
2018-03-11T04:48:59.685Z,88.53
2018-03-11T04:49:33.457Z,90.57
2018-03-11T04:50:07.951Z,89.97
2018-03-11T04:50:41.615Z,94.35
2018-03-11T04:51:15.303Z,94.47
2018-03-11T04:51:48.981Z,97.85
2018-03-11T04:52:22.650Z,90.15
2018-03-11T04:52:56.439Z,93.53
2018-03-11T04:53:30.115Z,97.60
2018-03-11T04:54:04.563Z,92.97
2018-03-11T04:54:38.247Z,96.57
2018-03-11T04:55:12.007Z,91.40
2018-03-11T04:55:46.445Z,93.30
2018-03-11T04:56:20.119Z,94.00
2018-03-11T04:56:53.791Z,99.78
2018-03-11T04:57:28.233Z,88.93
2018-03-11T04:58:01.892Z,89.85
2018-03-11T04:58:36.345Z,92.68
2018-03-11T04:59:10.025Z,94.15
2018-03-11T04:59:43.698Z,96.50
2018-03-11T05:00:17.382Z,97.68
2018-03-11T05:01:31.942Z,99.85
2018-03-11T05:02:05.621Z,98.25
2018-03-11T05:02:39.330Z,98.78
2018-03-11T05:03:13.966Z,97.15
2018-03-11T05:03:47.645Z,98.25
2018-03-11T05:04:21.332Z,106.03
2018-03-11T05:04:55.025Z,94.30
2018-03-11T05:05:28.701Z,94.82
2018-03-11T05:06:02.363Z,91.18
2018-03-11T05:06:35.711Z,91.97
2018-03-11T05:07:09.189Z,91.78
2018-03-11T05:07:42.859Z,88.30
2018-03-11T05:08:16.539Z,96.75
2018-03-11T05:08:50.220Z,89.35
2018-03-11T05:09:23.955Z,89.00
2018-03-11T05:09:57.776Z,92.50
2018-03-11T05:10:32.220Z,98.00
2018-03-11T05:11:05.898Z,91.12
2018-03-11T05:11:39.589Z,88.57
2018-03-11T05:12:13.260Z,91.87
2018-03-11T05:12:46.951Z,97.68
2018-03-11T05:13:20.642Z,91.18
2018-03-11T05:13:54.332Z,93.47
2018-03-11T05:14:28.016Z,93.62
2018-03-11T05:15:01.709Z,96.07
2018-03-11T05:15:35.400Z,89.32
2018-03-11T05:16:09.074Z,88.43
2018-03-11T05:16:43.200Z,92.57
2018-03-11T05:17:16.886Z,91.25
2018-03-11T05:17:50.590Z,92.97
2018-03-11T05:18:24.261Z,95.05
2018-03-11T05:18:57.952Z,88.78
2018-03-11T05:19:31.636Z,94.68
2018-03-11T05:20:05.334Z,91.20
2018-03-11T05:20:39.010Z,91.70
2018-03-11T05:21:13.456Z,86.30
2018-03-11T05:21:47.110Z,85.07
2018-03-11T05:22:20.790Z,89.32
2018-03-11T05:22:55.257Z,92.22
2018-03-11T05:23:28.949Z,85.25
2018-03-11T05:24:02.621Z,86.07
2018-03-11T05:24:36.306Z,84.50
2018-03-11T05:25:10.012Z,91.20
2018-03-11T05:25:43.684Z,85.00
2018-03-11T05:26:17.352Z,87.35
2018-03-11T05:26:51.031Z,86.82
2018-03-11T05:27:25.150Z,87.85
2018-03-11T05:27:58.840Z,82.80
2018-03-11T05:28:32.524Z,86.65
2018-03-11T05:29:06.294Z,82.05
2018-03-11T05:29:40.498Z,84.37
2018-03-11T05:30:14.952Z,83.95
2018-03-11T05:30:48.638Z,86.78
2018-03-11T05:31:22.298Z,85.38
2018-03-11T05:31:56.730Z,88.37
2018-03-11T05:32:30.400Z,87.90
2018-03-11T05:33:04.067Z,86.78
2018-03-11T05:33:38.511Z,90.65
2018-03-11T05:34:12.188Z,83.03
2018-03-11T05:34:45.858Z,80.68
2018-03-11T05:35:20.316Z,78.30
2018-03-11T05:35:53.985Z,83.65
2018-03-11T05:36:27.660Z,82.55
2018-03-11T05:37:01.335Z,80.20
2018-03-11T05:37:35.772Z,80.47
2018-03-11T05:38:09.442Z,77.55
2018-03-11T05:38:43.116Z,76.62
2018-03-11T05:39:17.560Z,82.53
2018-03-11T05:39:51.238Z,79.97
2018-03-11T05:40:25.164Z,81.20
2018-03-11T05:40:58.829Z,78.05
2018-03-11T05:41:32.518Z,76.97
2018-03-11T05:42:06.250Z,76.65
2018-03-11T05:42:39.932Z,81.78
2018-03-11T05:43:13.616Z,81.55
2018-03-11T05:43:47.302Z,76.35
2018-03-11T05:44:20.974Z,76.97
2018-03-11T05:44:54.654Z,91.10
2018-03-11T05:45:28.634Z,78.68
2018-03-11T05:46:03.056Z,80.35
2018-03-11T05:46:36.722Z,80.20
2018-03-11T05:47:10.384Z,86.10
2018-03-11T05:47:44.053Z,78.55
2018-03-11T05:48:17.750Z,76.30
2018-03-11T05:48:51.434Z,80.50
2018-03-11T05:49:25.110Z,78.45
2018-03-11T05:49:58.791Z,75.00
2018-03-11T05:50:32.614Z,75.45
2018-03-11T05:51:06.286Z,79.37
2018-03-11T05:51:39.982Z,75.80
2018-03-11T05:52:13.653Z,81.97
2018-03-11T05:52:47.340Z,82.88
2018-03-11T05:53:21.020Z,77.50
2018-03-11T05:53:54.698Z,74.37
2018-03-11T05:54:28.560Z,78.60
2018-03-11T05:55:02.228Z,73.68
2018-03-11T05:55:35.930Z,77.65
2018-03-11T05:56:09.639Z,77.68
2018-03-11T05:56:43.353Z,74.30
2018-03-11T05:57:17.183Z,78.72
2018-03-11T05:57:50.856Z,76.15
2018-03-11T05:58:24.546Z,74.60
2018-03-11T05:58:58.240Z,81.05
2018-03-11T05:59:31.914Z,74.60
2018-03-11T06:00:05.574Z,69.70
2018-03-11T06:00:39.288Z,82.15
2018-03-11T06:01:13.427Z,81.22
2018-03-11T06:01:47.094Z,77.43
2018-03-11T06:02:20.774Z,75.47
2018-03-11T06:02:54.487Z,82.68
2018-03-11T06:03:28.162Z,76.03
2018-03-11T06:04:01.843Z,68.95
2018-03-11T06:04:35.530Z,68.15
2018-03-11T06:05:09.196Z,82.40
2018-03-11T06:05:42.906Z,77.95
2018-03-11T06:06:17.346Z,75.12
2018-03-11T06:06:51.024Z,76.90
2018-03-11T06:07:24.698Z,79.35
2018-03-11T06:07:59.140Z,77.20
2018-03-11T06:08:32.822Z,77.55
2018-03-11T06:09:06.488Z,73.78
2018-03-11T06:09:40.176Z,78.53
2018-03-11T06:10:13.848Z,74.30
2018-03-11T06:10:48.322Z,70.32
2018-03-11T06:11:22.010Z,79.87
2018-03-11T06:11:55.705Z,73.18
2018-03-11T06:12:29.380Z,75.93
2018-03-11T06:13:03.064Z,67.53
2018-03-11T06:13:36.753Z,76.10
2018-03-11T06:14:10.420Z,72.50
2018-03-11T06:14:44.093Z,77.03
2018-03-11T06:15:18.546Z,76.87
2018-03-11T06:15:52.275Z,72.72
2018-03-11T06:16:26.726Z,72.93
2018-03-11T06:17:00.398Z,70.78
2018-03-11T06:17:34.077Z,70.65
2018-03-11T06:18:08.520Z,68.75
2018-03-11T06:18:42.190Z,70.45
2018-03-11T06:19:15.962Z,71.10
2018-03-11T06:19:50.410Z,70.30
2018-03-11T06:20:24.080Z,70.50
2018-03-11T06:20:57.789Z,69.15
2018-03-11T06:21:31.452Z,71.93
2018-03-11T06:22:05.119Z,70.30
2018-03-11T06:22:38.824Z,69.78
2018-03-11T06:23:13.270Z,71.40
2018-03-11T06:23:46.956Z,69.10
2018-03-11T06:24:20.641Z,75.20
2018-03-11T06:24:54.328Z,71.72
2018-03-11T06:25:28.013Z,64.60
2018-03-11T06:26:01.727Z,71.72
2018-03-11T06:26:35.414Z,64.95
2018-03-11T06:27:09.098Z,70.00
2018-03-11T06:27:42.770Z,67.80
2018-03-11T06:28:16.438Z,70.32
2018-03-11T06:28:50.889Z,69.40
2018-03-11T06:29:24.572Z,67.12
2018-03-11T06:29:58.250Z,73.00
2018-03-11T06:30:31.937Z,67.10
2018-03-11T06:31:05.642Z,67.60
2018-03-11T06:31:39.328Z,73.05
2018-03-11T06:32:13.012Z,65.35
2018-03-11T06:32:46.698Z,75.12
2018-03-11T06:33:20.366Z,70.47
2018-03-11T06:33:54.809Z,68.97
2018-03-11T06:34:28.494Z,70.07
2018-03-11T06:35:02.174Z,65.90
2018-03-11T06:35:35.838Z,66.70
2018-03-11T06:36:10.308Z,64.90
2018-03-11T06:36:43.998Z,66.50
2018-03-11T06:37:17.685Z,66.55
2018-03-11T06:37:51.378Z,66.72
2018-03-11T06:38:25.067Z,65.37
2018-03-11T06:38:58.772Z,65.35
2018-03-11T06:39:32.618Z,67.43
2018-03-11T06:40:06.308Z,65.78
2018-03-11T06:40:39.988Z,65.10
2018-03-11T06:41:13.971Z,67.93
2018-03-11T06:41:48.412Z,73.53
2018-03-11T06:42:22.102Z,62.70
2018-03-11T06:42:55.788Z,67.87
2018-03-11T06:43:29.466Z,63.00
2018-03-11T06:44:03.154Z,63.08
2018-03-11T06:44:36.844Z,64.72
2018-03-11T06:45:10.530Z,63.55
2018-03-11T06:45:44.216Z,60.55
2018-03-11T06:46:17.922Z,60.58
2018-03-11T06:46:51.618Z,68.90
2018-03-11T06:47:25.304Z,61.78
2018-03-11T06:47:58.993Z,64.45
2018-03-11T06:48:32.675Z,60.53
2018-03-11T06:49:06.357Z,58.42
2018-03-11T06:49:40.049Z,60.05
2018-03-11T06:50:13.732Z,57.28
2018-03-11T06:50:47.078Z,63.15
2018-03-11T06:51:20.788Z,57.13
2018-03-11T06:51:55.256Z,59.75
2018-03-11T06:52:28.927Z,58.38
2018-03-11T06:53:02.606Z,60.40
2018-03-11T06:53:36.288Z,56.83
2018-03-11T06:54:09.974Z,57.08
2018-03-11T06:54:43.660Z,58.45
2018-03-11T06:55:17.352Z,64.03
2018-03-11T06:55:51.798Z,56.58
2018-03-11T06:56:25.500Z,56.92
2018-03-11T06:56:59.183Z,61.35
2018-03-11T06:57:32.870Z,59.97
2018-03-11T06:58:06.565Z,58.97
2018-03-11T06:58:40.254Z,56.05
2018-03-11T06:59:13.939Z,54.75
2018-03-11T06:59:47.614Z,55.33
2018-03-11T07:00:21.282Z,59.13
2018-03-11T07:00:55.718Z,56.63
2018-03-11T07:01:29.414Z,57.97
2018-03-11T07:02:03.102Z,57.50
2018-03-11T07:02:36.780Z,54.97
2018-03-11T07:03:10.448Z,56.40
2018-03-11T07:03:44.129Z,54.85
2018-03-11T07:04:18.760Z,54.38
2018-03-11T07:04:52.444Z,56.75
2018-03-11T07:05:26.126Z,52.62
2018-03-11T07:06:00.572Z,52.97
2018-03-11T07:06:34.314Z,54.95
2018-03-11T07:07:08.773Z,56.00
2018-03-11T07:07:42.275Z,51.37
2018-03-11T07:08:15.774Z,55.15
2018-03-11T07:08:49.448Z,53.45
2018-03-11T07:09:23.127Z,52.28
2018-03-11T07:09:56.854Z,52.60
2018-03-11T07:10:30.670Z,55.95
2018-03-11T07:11:04.157Z,53.20
2018-03-11T07:11:37.874Z,50.72
2018-03-11T07:12:11.552Z,51.25
2018-03-11T07:12:45.032Z,50.80
2018-03-11T07:13:18.704Z,53.83